Pagina principale
METAR-TAF:

METAR-TAF

Aeroporti :

Isbell Field

Fort Payne, Alabama, Stati Uniti

latitudine: 34-28-25N, longitudine: 085-43-17W, altezza: 267 m

Osservazione

Il bollettino è stato emesso 14 minuti fa, alle 10:35 UTC
Vento 4 kt da nord-est
Temperature -3°C
Umidità 93%
Pressione 1024 hPa
Visibilità: 16.1 km
Cielo sereno

METAR: K4A9 121035Z AUTO 04004KT 10SM CLR M03/M04 A3024 RMK AO2 T10351040

Ora: 04:49 (10:49 UTC)


TAF: mancante

Osservazioni e previsioni meteorologiche di più di 4000 aeroporti (messaggi METAR e TAF).

Le stazioni disponibili sono rappresentate dai dischi gialli e rossi sulla carta.

Puntare il mouse per vedere il nome della stazione.

Clicca sopra per visualizzare le osservazioni e previsioni meteorologiche.

Per cambiare la mappa : fare clic sui pulsanti verdi con una croce nera per ingrandire, il pulsante verde con un trattino per diminuire, o sulla freccia verde per le mappe adiacenti.


METAR-TAF: